Good Thunder, Minnesota
Current Conditions -  °F | °C
As of 7:15 PM on Monday 26 Jan 2015 (Local Time) from KMKT Reporting Station
Overcast Overcast  
Wind Chill: 30°   Ceiling: 2400
Heat Index: 37°   Visibility: 10mi
Dew Point: 30°   Wind: 10mph
Humidity: 75%   Direction: 320°NW
Pressure: 29.9"   Gusts: NA
Location:  44°N, 94.07°W
Report Text: KMKT 270115Z AUTO 32009KT 10SM BKN024 OVC028 03/M01 A2990 RMK AO1
Loading
Personal Weather Stations






























Interactive Weather Map New forecast layout! Learn more

10-Day Weather Forecast

Advertisements
Track Severe Weather on mobile